X  CloseMetar Aviation Weather Data     KLNK Lincoln Airport

Temperature

79°F Temperature

37°F Dewpoint

23% Humidity



Wind

 9 MPH

14 KM/H

 4 M/S

 8 KTS



340°
NNWdir
Current Conditions

Clear Clear
Pressure 1019.62 (hPa) - 30.11 (in)
Visibility 10 (mi) - 16.1 (km)
Airport
Airport-code KLNK

Location Lincoln Airport 7 (mi)

Metar:
KLNK 262154Z 34008KT 10SM CLR 26/03 A3011 RMK AO2 SLP191 T02610028

Time: 26-09-2022 4:54